createdAt,value
2022-11-13T00:00:35.877Z,8.17
2022-11-13T00:04:56.309Z,8.21
2022-11-13T00:09:16.411Z,8.21
2022-11-13T00:13:37.141Z,8.21
2022-11-13T00:18:00.840Z,8.20
2022-11-13T00:22:21.199Z,8.22
2022-11-13T00:26:42.854Z,8.24
2022-11-13T00:31:04.797Z,8.25
2022-11-13T00:35:24.839Z,8.22
2022-11-13T00:39:45.327Z,8.21
2022-11-13T00:44:05.388Z,8.22
2022-11-13T00:48:26.103Z,8.21
2022-11-13T00:52:46.739Z,8.22
2022-11-13T00:57:07.107Z,8.21
2022-11-13T01:01:27.675Z,8.18
2022-11-13T01:05:48.191Z,8.12
2022-11-13T01:10:09.015Z,8.10
2022-11-13T01:14:29.228Z,8.10
2022-11-13T01:18:49.348Z,8.07
2022-11-13T01:23:09.533Z,8.09
2022-11-13T01:27:30.012Z,8.03
2022-11-13T01:31:50.280Z,7.99
2022-11-13T01:36:16.256Z,7.95
2022-11-13T01:40:36.231Z,7.92
2022-11-13T01:44:59.606Z,7.89
2022-11-13T01:49:28.339Z,7.89
2022-11-13T01:53:49.114Z,7.82
2022-11-13T01:58:10.622Z,7.76
2022-11-13T02:02:30.737Z,7.69
2022-11-13T02:06:55.349Z,7.63
2022-11-13T02:11:15.728Z,7.58
2022-11-13T02:15:36.018Z,7.52
2022-11-13T02:20:00.499Z,7.51
2022-11-13T02:24:26.017Z,7.50
2022-11-13T02:28:46.018Z,7.47
2022-11-13T02:33:25.624Z,7.47
2022-11-13T02:37:45.899Z,7.45
2022-11-13T02:42:06.433Z,7.41
2022-11-13T02:46:26.809Z,7.36
2022-11-13T02:50:47.403Z,7.36
2022-11-13T02:55:07.965Z,7.36
2022-11-13T02:59:28.151Z,7.32
2022-11-13T03:03:57.557Z,7.34
2022-11-13T03:08:18.981Z,7.33
2022-11-13T03:12:40.587Z,7.33
2022-11-13T03:17:01.383Z,7.32
2022-11-13T03:21:21.636Z,7.29
2022-11-13T03:25:41.812Z,7.30
2022-11-13T03:30:01.883Z,7.32
2022-11-13T03:34:22.143Z,7.29
2022-11-13T03:38:42.543Z,7.19
2022-11-13T03:43:02.980Z,7.16
2022-11-13T03:47:23.310Z,7.11
2022-11-13T03:51:43.387Z,7.08
2022-11-13T03:56:03.579Z,7.07
2022-11-13T04:00:23.743Z,7.00
2022-11-13T04:04:44.736Z,6.93
2022-11-13T04:09:05.178Z,6.93
2022-11-13T04:13:25.271Z,6.94
2022-11-13T04:17:45.635Z,6.89
2022-11-13T04:22:05.894Z,6.82
2022-11-13T04:26:26.135Z,6.82
2022-11-13T04:30:46.425Z,6.78
2022-11-13T04:35:09.298Z,6.76
2022-11-13T04:39:29.450Z,6.73
2022-11-13T04:43:49.600Z,6.71
2022-11-13T04:48:09.896Z,6.69
2022-11-13T04:52:30.312Z,6.68
2022-11-13T04:56:50.755Z,6.69
2022-11-13T05:01:10.895Z,6.63
2022-11-13T05:05:30.815Z,6.63
2022-11-13T05:09:51.214Z,6.64
2022-11-13T05:14:12.768Z,6.64
2022-11-13T05:18:34.308Z,6.65
2022-11-13T05:22:54.474Z,6.65
2022-11-13T05:27:17.449Z,6.58
2022-11-13T05:31:37.943Z,6.63
2022-11-13T05:36:10.101Z,6.64
2022-11-13T05:40:30.125Z,6.63
2022-11-13T05:44:50.422Z,6.68
2022-11-13T05:49:10.660Z,6.69
2022-11-13T05:53:31.209Z,6.68
2022-11-13T05:57:51.152Z,6.71
2022-11-13T06:02:11.249Z,6.65
2022-11-13T06:06:32.074Z,6.65
2022-11-13T06:10:52.474Z,6.65
2022-11-13T06:15:12.499Z,6.65
2022-11-13T06:19:32.797Z,6.64
2022-11-13T06:23:52.806Z,6.72
2022-11-13T06:28:13.213Z,6.72
2022-11-13T06:32:33.215Z,6.76
2022-11-13T06:36:53.519Z,6.73
2022-11-13T06:41:16.104Z,6.68
2022-11-13T06:45:36.177Z,6.65
2022-11-13T06:49:56.360Z,6.68
2022-11-13T06:54:16.652Z,6.64
2022-11-13T06:58:37.711Z,6.65
2022-11-13T07:02:57.951Z,6.68
2022-11-13T07:07:18.121Z,6.71
2022-11-13T07:11:38.579Z,6.69
2022-11-13T07:16:15.787Z,6.73
2022-11-13T07:20:37.286Z,6.82
2022-11-13T07:24:58.267Z,6.91
2022-11-13T07:29:18.477Z,6.99
2022-11-13T07:33:38.589Z,7.09
2022-11-13T07:37:59.192Z,7.07
2022-11-13T07:42:19.122Z,6.94
2022-11-13T07:46:39.547Z,6.87
2022-11-13T07:51:01.791Z,6.89
2022-11-13T07:55:21.964Z,6.91
2022-11-13T07:59:41.911Z,6.94
2022-11-13T08:04:02.234Z,7.01
2022-11-13T08:08:22.126Z,7.04
2022-11-13T08:12:42.628Z,7.15
2022-11-13T08:17:02.544Z,7.23
2022-11-13T08:21:22.551Z,7.30
2022-11-13T08:25:42.920Z,7.32
2022-11-13T08:30:03.409Z,7.23
2022-11-13T08:34:23.605Z,7.18
2022-11-13T08:38:43.816Z,7.09
2022-11-13T08:43:04.682Z,7.12
2022-11-13T08:47:29.307Z,7.11
2022-11-13T08:51:49.908Z,7.11
2022-11-13T08:56:10.222Z,7.14
2022-11-13T09:00:32.586Z,7.24
2022-11-13T09:04:52.583Z,7.33
2022-11-13T09:09:12.870Z,7.27
2022-11-13T09:13:34.297Z,7.39
2022-11-13T09:18:02.655Z,7.57
2022-11-13T09:22:22.991Z,7.63
2022-11-13T09:26:43.381Z,7.58
2022-11-13T09:31:07.520Z,7.51
2022-11-13T09:35:34.556Z,7.44
2022-11-13T09:39:54.805Z,7.52
2022-11-13T09:44:27.443Z,7.54
2022-11-13T09:49:17.224Z,7.74
2022-11-13T09:53:39.639Z,7.77
2022-11-13T09:58:31.673Z,7.79
2022-11-13T10:04:00.613Z,7.82
2022-11-13T10:08:22.325Z,8.02
2022-11-13T10:12:44.610Z,8.10
2022-11-13T10:17:33.595Z,8.02
2022-11-13T10:22:31.527Z,8.13
2022-11-13T10:26:49.250Z,8.31
2022-11-13T10:31:11.775Z,8.40
2022-11-13T10:35:47.891Z,8.36
2022-11-13T10:40:08.398Z,8.36
2022-11-13T10:44:33.018Z,8.42
2022-11-13T10:48:53.260Z,8.39
2022-11-13T10:53:16.846Z,8.54
2022-11-13T10:57:37.172Z,8.64
2022-11-13T11:02:09.417Z,8.63
2022-11-13T11:11:37.541Z,8.88
2022-11-13T11:16:01.870Z,9.03
2022-11-13T11:20:47.868Z,9.15
2022-11-13T11:25:24.694Z,9.20
2022-11-13T11:29:55.350Z,9.23
2022-11-13T11:34:41.071Z,9.34
2022-11-13T11:39:19.683Z,9.40
2022-11-13T11:43:43.897Z,9.53
2022-11-13T11:48:10.059Z,9.49
2022-11-13T11:53:13.044Z,9.59
2022-11-13T11:57:49.497Z,9.65
2022-11-13T12:02:33.910Z,9.73
2022-11-13T12:07:13.376Z,9.74
2022-11-13T12:11:34.469Z,9.52
2022-11-13T12:16:11.613Z,9.31
2022-11-13T12:20:49.339Z,9.30
2022-11-13T12:25:33.706Z,9.22
2022-11-13T12:30:17.399Z,9.23
2022-11-13T12:34:49.597Z,9.20
2022-11-13T12:39:28.679Z,9.34
2022-11-13T12:44:01.482Z,9.35
2022-11-13T12:48:28.382Z,9.38
2022-11-13T12:53:07.055Z,9.45
2022-11-13T12:57:30.595Z,9.53
2022-11-13T13:02:09.875Z,9.65
2022-11-13T13:07:01.123Z,9.75
2022-11-13T13:11:55.706Z,9.95
2022-11-13T13:16:25.544Z,10.10
2022-11-13T13:21:07.261Z,10.18
2022-11-13T13:25:32.536Z,10.25
2022-11-13T13:29:52.576Z,10.26
2022-11-13T13:34:37.336Z,10.31
2022-11-13T13:39:05.101Z,10.34
2022-11-13T13:43:42.601Z,10.35
2022-11-13T13:48:10.651Z,10.34
2022-11-13T13:52:34.904Z,10.35
2022-11-13T13:56:57.193Z,10.35
2022-11-13T14:01:31.126Z,10.35
2022-11-13T14:05:52.183Z,10.38
2022-11-13T14:10:15.096Z,10.36
2022-11-13T14:14:38.901Z,10.35
2022-11-13T14:19:04.238Z,10.34
2022-11-13T14:23:43.719Z,10.34
2022-11-13T14:28:04.395Z,10.38
2022-11-13T14:32:30.455Z,10.39
2022-11-13T14:36:50.917Z,10.39
2022-11-13T14:41:20.433Z,10.35
2022-11-13T14:45:40.694Z,10.29
2022-11-13T14:50:20.075Z,10.24
2022-11-13T14:55:13.610Z,10.20
2022-11-13T14:59:27.816Z,10.18
2022-11-13T15:03:49.438Z,10.07
2022-11-13T15:08:13.932Z,9.98
2022-11-13T15:12:33.835Z,9.91
2022-11-13T15:16:53.971Z,9.85
2022-11-13T15:21:14.222Z,9.77
2022-11-13T15:25:34.615Z,9.71
2022-11-13T15:29:54.582Z,9.63
2022-11-13T15:34:16.268Z,9.56
2022-11-13T15:38:36.644Z,9.50
2022-11-13T15:43:02.256Z,9.42
2022-11-13T15:47:37.056Z,9.37
2022-11-13T15:51:57.137Z,9.30
2022-11-13T15:56:18.263Z,9.22
2022-11-13T16:00:42.540Z,9.17
2022-11-13T16:05:02.767Z,9.12
2022-11-13T16:09:22.884Z,9.08
2022-11-13T16:13:43.502Z,9.01
2022-11-13T16:18:03.963Z,8.97
2022-11-13T16:22:26.387Z,8.96
2022-11-13T16:26:53.996Z,8.93
2022-11-13T16:31:14.954Z,8.88
2022-11-13T16:35:35.510Z,8.83
2022-11-13T16:39:56.187Z,8.78
2022-11-13T16:44:16.704Z,8.75
2022-11-13T16:48:36.869Z,8.71
2022-11-13T16:52:56.878Z,8.65
2022-11-13T16:57:17.318Z,8.60
2022-11-13T17:01:38.032Z,8.54
2022-11-13T17:05:58.439Z,8.49
2022-11-13T17:10:35.847Z,8.45
2022-11-13T17:14:56.184Z,8.40
2022-11-13T17:19:16.475Z,8.34
2022-11-13T17:23:37.128Z,8.29
2022-11-13T17:27:57.038Z,8.22
2022-11-13T17:32:17.381Z,8.18
2022-11-13T17:36:37.667Z,8.13
2022-11-13T17:41:08.048Z,8.09
2022-11-13T17:45:28.354Z,8.03
2022-11-13T17:49:48.601Z,7.99
2022-11-13T17:54:08.820Z,7.92
2022-11-13T17:58:29.455Z,7.89
2022-11-13T18:02:49.294Z,7.85
2022-11-13T18:07:09.579Z,7.79
2022-11-13T18:11:30.395Z,7.79
2022-11-13T18:15:50.687Z,7.74
2022-11-13T18:20:11.357Z,7.70
2022-11-13T18:24:31.255Z,7.69
2022-11-13T18:28:51.247Z,7.62
2022-11-13T18:33:11.566Z,7.60
2022-11-13T18:37:32.275Z,7.58
2022-11-13T18:41:53.462Z,7.57
2022-11-13T18:46:15.751Z,7.51
2022-11-13T18:50:36.149Z,7.48
2022-11-13T18:54:56.072Z,7.48
2022-11-13T18:59:16.301Z,7.45
2022-11-13T19:03:36.588Z,7.45
2022-11-13T19:07:56.807Z,7.42
2022-11-13T19:12:16.724Z,7.42
2022-11-13T19:16:38.861Z,7.41
2022-11-13T19:21:02.990Z,7.42
2022-11-13T19:25:23.003Z,7.42
2022-11-13T19:29:43.128Z,7.42
2022-11-13T19:34:06.004Z,7.39
2022-11-13T19:38:27.668Z,7.33
2022-11-13T19:42:47.815Z,7.27
2022-11-13T19:47:07.987Z,7.21
2022-11-13T19:51:28.402Z,7.16
2022-11-13T19:55:55.292Z,7.14
2022-11-13T20:00:16.099Z,7.11
2022-11-13T20:04:36.361Z,7.01
2022-11-13T20:08:58.733Z,7.01
2022-11-13T20:13:18.725Z,7.01
2022-11-13T20:17:38.890Z,7.00
2022-11-13T20:21:59.834Z,7.04
2022-11-13T20:26:19.847Z,6.97
2022-11-13T20:30:40.168Z,6.94
2022-11-13T20:35:00.450Z,6.90
2022-11-13T20:39:20.536Z,6.90
2022-11-13T20:43:40.800Z,6.93
2022-11-13T20:48:02.185Z,6.91
2022-11-13T20:52:22.628Z,6.93
2022-11-13T20:56:43.137Z,6.93
2022-11-13T21:01:15.299Z,6.96
2022-11-13T21:05:35.769Z,6.96
2022-11-13T21:09:56.144Z,6.97
2022-11-13T21:14:16.229Z,6.97
2022-11-13T21:18:37.470Z,7.00
2022-11-13T21:22:57.619Z,6.97
2022-11-13T21:27:17.838Z,6.94
2022-11-13T21:31:37.913Z,6.87
2022-11-13T21:36:03.835Z,6.89
2022-11-13T21:40:24.224Z,6.86
2022-11-13T21:44:44.550Z,6.87
2022-11-13T21:49:07.348Z,6.87
2022-11-13T21:53:27.450Z,6.93
2022-11-13T21:57:47.595Z,6.96
2022-11-13T22:02:10.542Z,6.99
2022-11-13T22:06:33.003Z,7.04
2022-11-13T22:10:54.082Z,7.09
2022-11-13T22:15:14.162Z,7.15
2022-11-13T22:19:36.434Z,7.21
2022-11-13T22:23:57.868Z,7.26
2022-11-13T22:28:17.958Z,7.29
2022-11-13T22:32:37.917Z,7.34
2022-11-13T22:36:58.120Z,7.37
2022-11-13T22:41:27.626Z,7.41
2022-11-13T22:45:47.829Z,7.47
2022-11-13T22:50:08.385Z,7.50
2022-11-13T22:54:28.365Z,7.52
2022-11-13T22:58:48.605Z,7.57
2022-11-13T23:03:09.158Z,7.58
2022-11-13T23:07:30.450Z,7.58
2022-11-13T23:11:50.841Z,7.63
2022-11-13T23:16:11.607Z,7.67
2022-11-13T23:20:31.887Z,7.69
2022-11-13T23:24:51.845Z,7.70
2022-11-13T23:29:12.493Z,7.73
2022-11-13T23:33:32.852Z,7.73
2022-11-13T23:37:53.375Z,7.76
2022-11-13T23:42:13.785Z,7.77
2022-11-13T23:46:33.879Z,7.79
2022-11-13T23:50:53.886Z,7.81
2022-11-13T23:55:15.275Z,7.84
2022-11-13T23:59:35.469Z,7.84
